Time;durP1;ratioP1;P1;durP2;ratioP2;P2;SDS_P1;SDS_P2;PMS_P1;PMS_P2;Temp;Humidity;BMP_temperature;BMP_pressure;BME280_temperature;BME280_humidity;BME280_pressure;Samples;Min_cycle;Max_cycle;Signal;HPM_P1;HPM_P2
2023/04/27 00:01:48;;;;;;;6.63;2.47;;;;;;;5.56;100.00;98887.28;5010925;28;20396;-79
2023/04/27 00:04:15;;;;;;;7.50;2.88;;;;;;;5.24;100.00;98856.81;4995109;28;20022;-78
2023/04/27 00:06:41;;;;;;;6.75;2.58;;;;;;;5.25;100.00;98866.50;4992801;28;20029;-79
2023/04/27 00:09:06;;;;;;;6.70;2.45;;;;;;;5.20;100.00;98864.31;4994848;28;20033;-79
2023/04/27 00:11:31;;;;;;;3.97;2.38;;;;;;;5.27;100.00;98857.28;4995668;28;20076;-78
2023/04/27 00:13:57;;;;;;;5.68;2.50;;;;;;;5.31;100.00;98884.59;4995381;28;20025;-79
2023/04/27 00:16:22;;;;;;;4.55;2.20;;;;;;;5.07;100.00;98864.00;5006750;28;20399;-79
2023/04/27 00:18:48;;;;;;;5.57;2.83;;;;;;;4.97;100.00;98864.13;4988202;28;20033;-78
2023/04/27 00:21:13;;;;;;;4.72;2.63;;;;;;;5.00;100.00;98857.59;5018668;28;20410;-79
2023/04/27 00:23:38;;;;;;;3.67;2.20;;;;;;;4.43;100.00;98788.72;5012018;28;20037;-78
2023/04/27 00:26:04;;;;;;;7.63;2.28;;;;;;;4.66;100.00;98822.88;4990446;28;20172;-78
2023/04/27 00:28:29;;;;;;;3.92;2.30;;;;;;;4.73;100.00;98854.22;5012635;28;20113;-79
2023/04/27 00:30:55;;;;;;;7.88;3.05;;;;;;;4.76;100.00;98855.72;4997540;28;20036;-79
2023/04/27 00:33:20;;;;;;;5.63;2.15;;;;;;;4.63;100.00;98850.84;5015507;28;20106;-78
2023/04/27 00:35:45;;;;;;;3.58;2.28;;;;;;;4.69;100.00;98870.78;5014557;28;20116;-78
2023/04/27 00:38:11;;;;;;;4.03;2.63;;;;;;;4.57;100.00;98865.75;5007418;28;20423;-78
2023/04/27 00:40:37;;;;;;;4.97;2.83;;;;;;;4.50;100.00;98842.44;4992708;28;20044;-78
2023/04/27 00:43:02;;;;;;;6.75;2.90;;;;;;;4.44;100.00;98841.25;4996071;28;20466;-78
2023/04/27 00:45:28;;;;;;;7.78;3.08;;;;;;;4.51;100.00;98844.97;4994275;28;20109;-78
2023/04/27 00:47:53;;;;;;;4.45;2.50;;;;;;;4.26;100.00;98813.75;4995183;28;20053;-79
2023/04/27 00:50:30;;;;;;;5.75;2.20;;;;;;;4.37;100.00;98857.13;5015137;28;20488;-79
2023/04/27 00:52:56;;;;;;;8.15;2.47;;;;;;;4.18;100.00;98850.22;4996194;28;20032;-79
2023/04/27 00:55:22;;;;;;;3.85;2.35;;;;;;;4.06;100.00;98850.66;5009896;28;20021;-78
2023/04/27 00:57:47;;;;;;;5.20;2.65;;;;;;;4.15;100.00;98855.06;4998129;28;20116;-80
2023/04/27 01:00:14;;;;;;;4.85;2.58;;;;;;;3.99;100.00;98837.09;4996577;28;20117;-78
2023/04/27 01:02:40;;;;;;;5.22;2.70;;;;;;;3.90;100.00;98822.84;4998206;28;20030;-79
2023/04/27 01:05:06;;;;;;;6.80;2.88;;;;;;;3.82;100.00;98809.41;5008094;28;20080;-78
2023/04/27 01:07:31;;;;;;;4.05;2.53;;;;;;;3.87;100.00;98820.47;4997519;28;20022;-79
2023/04/27 01:09:56;;;;;;;3.33;2.33;;;;;;;4.01;100.00;98842.25;5014251;28;20026;-78
2023/04/27 01:12:21;;;;;;;5.95;2.40;;;;;;;4.01;100.00;98832.44;4997675;28;20113;-78
2023/04/27 01:14:47;;;;;;;11.98;2.42;;;;;;;4.24;100.00;98847.88;5012321;28;20033;-78
2023/04/27 01:17:13;;;;;;;3.70;2.35;;;;;;;4.05;100.00;98807.00;4992963;28;20029;-79
2023/04/27 01:19:39;;;;;;;6.97;3.00;;;;;;;4.23;100.00;98841.69;4997120;28;20472;-78
2023/04/27 01:22:06;;;;;;;7.40;2.40;;;;;;;4.37;100.00;98856.31;4999675;28;20495;-78
2023/04/27 01:24:32;;;;;;;5.22;2.20;;;;;;;4.42;100.00;98848.63;5014593;28;20045;-78
2023/04/27 01:26:57;;;;;;;3.83;2.17;;;;;;;4.26;100.00;98821.78;5013858;28;20109;-78
2023/04/27 01:29:22;;;;;;;5.20;2.85;;;;;;;4.08;100.00;98795.13;5006921;28;20075;-79
2023/04/27 01:31:48;;;;;;;3.45;2.33;;;;;;;4.25;100.00;98836.19;4995648;28;20101;-79
2023/04/27 01:34:13;;;;;;;3.35;2.10;;;;;;;4.11;100.00;98835.81;5014347;28;20030;-78
2023/04/27 01:36:38;;;;;;;3.45;2.15;;;;;;;4.23;100.00;98862.28;5015445;28;20026;-78
2023/04/27 01:39:07;;;;;;;6.63;2.22;;;;;;;3.91;100.00;98808.44;4987976;28;20510;-78
2023/04/27 01:41:33;;;;;;;;;;;;;;;4.28;100.00;98860.81;4996985;28;20030;-79
2023/04/27 01:43:58;;;;;;;4.80;2.10;;;;;;;4.16;100.00;98846.03;5009536;28;19914;-79
2023/04/27 01:46:23;;;;;;;9.38;2.65;;;;;;;4.08;100.00;98848.66;5006983;28;20030;-78
2023/04/27 01:48:48;;;;;;;4.63;2.15;;;;;;;3.88;100.00;98832.03;4996546;28;20044;-78
2023/04/27 01:51:14;;;;;;;4.18;2.08;;;;;;;3.90;100.00;98836.22;4996308;28;20161;-79
2023/04/27 01:53:40;;;;;;;5.43;2.97;;;;;;;3.77;100.00;98818.91;4997842;28;20029;-78
2023/04/27 01:56:06;;;;;;;4.50;2.60;;;;;;;3.82;100.00;98828.13;4997002;28;20053;-78
2023/04/27 01:58:31;;;;;;;6.10;2.88;;;;;;;3.80;100.00;98823.94;4999468;28;20018;-78
2023/04/27 02:00:56;;;;;;;7.18;2.53;;;;;;;4.02;100.00;98847.47;4994061;28;20038;-78
2023/04/27 02:03:22;;;;;;;4.80;2.80;;;;;;;4.11;100.00;98865.25;5006871;28;20476;-79
2023/04/27 02:05:47;;;;;;;6.53;2.92;;;;;;;3.91;100.00;98837.88;5009198;28;20022;-78
2023/04/27 02:08:12;;;;;;;5.47;2.30;;;;;;;3.94;100.00;98856.31;5005637;28;20041;-78
2023/04/27 02:10:38;;;;;;;4.65;2.15;;;;;;;3.95;100.00;98854.47;5015486;28;20057;-78
2023/04/27 02:13:03;;;;;;;5.38;2.00;;;;;;;3.91;100.00;98859.31;5008482;28;20034;-78
2023/04/27 02:15:29;;;;;;;5.50;2.58;;;;;;;3.78;100.00;98831.31;5026846;28;20467;-78
2023/04/27 02:17:54;;;;;;;4.22;2.10;;;;;;;3.99;100.00;98860.34;4989034;28;20033;-78
2023/04/27 02:20:20;;;;;;;5.43;2.40;;;;;;;3.90;100.00;98856.78;5011339;28;20480;-78
2023/04/27 02:22:45;;;;;;;4.05;2.25;;;;;;;3.67;100.00;98835.94;5013978;28;20034;-78
2023/04/27 02:25:11;;;;;;;5.35;2.55;;;;;;;3.93;100.00;98878.72;4992964;28;20031;-78
2023/04/27 02:27:40;;;;;;;9.18;2.90;;;;;;;3.87;100.00;98857.94;4977312;28;20472;-78
2023/04/27 02:30:13;;;;;;;3.58;2.40;;;;;;;3.90;100.00;98862.13;4986907;28;20045;-78
2023/04/27 02:32:38;;;;;;;9.05;2.80;;;;;;;3.78;100.00;98847.38;4996668;28;20042;-78
2023/04/27 02:35:04;;;;;;;8.80;2.92;;;;;;;4.13;100.00;98890.03;4995215;28;20048;-78
2023/04/27 02:37:30;;;;;;;6.43;2.70;;;;;;;4.06;100.00;98870.25;5013874;28;20081;-78
2023/04/27 02:39:55;;;;;;;6.65;3.05;;;;;;;3.71;100.00;98809.69;5010821;28;20026;-78
2023/04/27 02:42:21;;;;;;;9.63;2.42;;;;;;;3.97;100.00;98870.38;4995134;28;20393;-77
2023/04/27 02:44:46;;;;;;;7.70;3.03;;;;;;;4.13;100.00;98890.03;4995193;28;20111;-77
2023/04/27 02:47:12;;;;;;;7.32;2.88;;;;;;;3.89;100.00;98855.09;5013237;28;20026;-77
2023/04/27 02:49:37;;;;;;;5.10;2.80;;;;;;;4.21;100.00;98896.41;4995492;28;20456;-79
2023/04/27 02:52:03;;;;;;;6.47;2.95;;;;;;;3.97;100.00;98852.47;5011599;28;20101;-78
2023/04/27 02:54:28;;;;;;;5.53;2.83;;;;;;;4.26;100.00;98894.94;5017409;28;20101;-77
2023/04/27 02:56:54;;;;;;;5.72;3.10;;;;;;;4.34;100.00;98896.81;5005634;28;20058;-78
2023/04/27 02:59:19;;;;;;;8.05;3.00;;;;;;;4.07;100.00;98850.50;5004607;28;20072;-77
2023/04/27 03:01:45;;;;;;;9.35;2.78;;;;;;;4.27;100.00;98874.34;5005199;28;20022;-77
2023/04/27 03:04:12;;;;;;;6.20;2.88;;;;;;;4.27;100.00;98863.63;5008747;28;20476;-77
2023/04/27 03:06:38;;;;;;;7.43;2.67;;;;;;;4.38;100.00;98863.34;5024542;28;20022;-77
2023/04/27 03:09:04;;;;;;;4.55;2.83;;;;;;;4.46;100.00;98867.91;5020363;28;20041;-77
2023/04/27 03:11:29;;;;;;;8.10;3.08;;;;;;;4.50;100.00;98883.47;5016683;28;20026;-78
2023/04/27 03:13:55;;;;;;;4.05;2.25;;;;;;;4.46;100.00;98878.63;5004179;28;20424;-77
2023/04/27 03:16:20;;;;;;;3.88;2.00;;;;;;;4.35;100.00;98867.19;5013911;28;20029;-78
2023/04/27 03:18:45;;;;;;;6.05;2.72;;;;;;;4.33;100.00;98874.56;5013261;28;20052;-79
2023/04/27 03:21:11;;;;;;;7.97;2.60;;;;;;;4.44;100.00;98886.81;4994595;28;20033;-78
2023/04/27 03:23:37;;;;;;;4.85;3.08;;;;;;;4.49;100.00;98903.22;5007299;28;20018;-79
2023/04/27 03:26:12;;;;;;;10.90;2.70;;;;;;;4.58;100.00;98902.28;4993647;28;20091;-79
2023/04/27 03:28:38;;;;;;;7.40;3.13;;;;;;;4.33;100.00;98871.03;5019165;28;20041;-79
2023/04/27 03:31:05;;;;;;;8.15;3.17;;;;;;;4.50;100.00;98888.81;5001647;28;20069;-78
2023/04/27 03:33:30;;;;;;;5.38;2.88;;;;;;;4.42;100.00;98883.44;5018881;28;20030;-79
2023/04/27 03:35:56;;;;;;;8.93;2.67;;;;;;;4.34;100.00;98870.03;4998478;28;20048;-78
2023/04/27 03:38:23;;;;;;;7.97;3.10;;;;;;;4.30;100.00;98871.38;4995794;28;20018;-78
2023/04/27 03:40:48;;;;;;;7.57;3.30;;;;;;;4.10;100.00;98850.19;5006443;28;20037;-78
2023/04/27 03:43:13;;;;;;;13.57;3.40;;;;;;;4.42;100.00;98875.41;5011507;28;20021;-78
2023/04/27 03:45:38;;;;;;;6.80;2.92;;;;;;;4.38;100.00;98845.44;5008647;28;20048;-77
2023/04/27 03:51:26;;;;;;;5.72;2.88;;;;;;;4.46;100.00;98847.31;5014798;28;20041;-86
2023/04/27 03:53:54;;;;;;;5.97;3.22;;;;;;;4.67;100.00;98881.69;5000938;28;20415;-86
2023/04/27 03:56:20;;;;;;;7.03;2.80;;;;;;;4.54;100.00;98843.81;4999589;28;20542;-79
2023/04/27 03:58:48;;;;;;;4.45;2.70;;;;;;;4.56;100.00;98857.88;4999094;28;20033;-85
2023/04/27 04:01:15;;;;;;;5.07;2.67;;;;;;;4.52;100.00;98838.59;4998878;28;20030;-89
2023/04/27 04:03:41;;;;;;;3.95;2.55;;;;;;;4.72;100.00;98857.91;4994690;28;20109;-78
2023/04/27 04:06:06;;;;;;;7.55;3.03;;;;;;;4.65;100.00;98862.25;5009711;28;20038;-80
2023/04/27 04:08:33;;;;;;;8.48;2.88;;;;;;;4.68;100.00;98869.13;5012990;28;20029;-89
2023/04/27 04:10:59;;;;;;;4.82;2.83;;;;;;;4.49;100.00;98854.19;5006649;28;20032;-82
2023/04/27 04:13:24;;;;;;;6.75;3.60;;;;;;;4.59;100.00;98895.91;5000390;28;20018;-87
2023/04/27 04:15:58;;;;;;;6.35;3.58;;;;;;;4.44;100.00;98880.63;4998917;28;20029;-79
2023/04/27 04:18:24;;;;;;;9.55;3.90;;;;;;;4.03;100.00;98814.34;4995495;28;20014;-76
2023/04/27 04:20:50;;;;;;;6.38;3.00;;;;;;;4.74;100.00;98908.66;4968991;28;20281;-76
2023/04/27 04:23:15;;;;;;;6.25;2.75;;;;;;;4.60;100.00;98869.94;4990232;28;20034;-79
2023/04/27 04:25:40;;;;;;;6.63;3.05;;;;;;;4.61;100.00;98861.75;4999733;28;20345;-81
2023/04/27 04:28:05;;;;;;;5.13;2.20;;;;;;;4.48;100.00;98839.94;5015681;28;20057;-82
2023/04/27 04:30:32;;;;;;;4.57;2.67;;;;;;;4.90;100.00;98891.78;5013334;28;20141;-80
2023/04/27 04:32:57;;;;;;;4.53;2.83;;;;;;;4.77;100.00;98903.00;5017844;28;20022;-81
2023/04/27 04:35:22;;;;;;;6.40;2.83;;;;;;;4.82;100.00;98879.19;4999264;28;20022;-83
2023/04/27 04:37:48;;;;;;;6.55;3.00;;;;;;;4.85;100.00;98881.56;5014633;28;20101;-81
2023/04/27 04:40:13;;;;;;;9.15;3.33;;;;;;;4.90;100.00;98897.13;5014316;28;20026;-79
2023/04/27 04:42:39;;;;;;;7.78;3.83;;;;;;;4.52;100.00;98848.50;4996565;28;20027;-84
2023/04/27 04:45:05;;;;;;;11.48;3.58;;;;;;;4.29;100.00;98818.78;5016310;28;20208;-85
2023/04/27 04:47:31;;;;;;;10.00;3.38;;;;;;;5.03;100.00;98910.91;4996367;28;20054;-79
2023/04/27 04:49:57;;;;;;;8.45;4.15;;;;;;;5.03;100.00;98897.47;5018369;28;20100;-83
2023/04/27 04:52:22;;;;;;;5.53;3.40;;;;;;;5.22;100.00;98886.47;4996392;28;20407;-83
2023/04/27 04:54:51;;;;;;;11.32;3.53;;;;;;;5.31;100.00;98919.47;4995749;28;20018;-85
2023/04/27 04:57:17;;;;;;;6.03;3.30;;;;;;;5.00;100.00;98876.38;4989265;28;20105;-78
2023/04/27 04:59:42;;;;;;;5.50;2.90;;;;;;;5.03;100.00;98886.75;4994661;28;20523;-77
2023/04/27 05:02:07;;;;;;;8.50;3.75;;;;;;;5.22;100.00;98921.31;4994082;28;20018;-80
2023/04/27 05:04:32;;;;;;;5.72;3.00;;;;;;;5.17;100.00;98898.69;5007153;28;20029;-80
2023/04/27 05:06:59;;;;;;;7.32;3.13;;;;;;;5.19;100.00;98878.75;5013314;28;20112;-79
2023/04/27 05:09:24;;;;;;;7.88;3.40;;;;;;;5.41;100.00;98908.59;4994050;28;20022;-79
2023/04/27 05:11:49;;;;;;;6.55;3.40;;;;;;;5.51;100.00;98901.22;4994445;28;20037;-78
2023/04/27 05:14:15;;;;;;;5.93;3.45;;;;;;;5.45;100.00;98888.47;4994385;28;20033;-80
2023/04/27 05:16:40;;;;;;;6.60;3.30;;;;;;;5.58;100.00;98904.03;5014691;28;20099;-78
2023/04/27 05:19:07;;;;;;;7.00;3.38;;;;;;;5.55;100.00;98882.91;4999059;28;20018;-76
2023/04/27 05:21:32;;;;;;;8.98;3.80;;;;;;;5.75;100.00;98903.03;4996473;28;20032;-82
2023/04/27 05:23:57;;;;;;;11.25;3.20;;;;;;;5.94;100.00;98915.28;4998871;28;20034;-75
2023/04/27 05:26:23;;;;;;;5.68;3.20;;;;;;;5.95;100.00;98891.94;5012843;28;20484;-75
2023/04/27 05:28:48;;;;;;;7.47;3.95;;;;;;;5.86;100.00;98885.72;5009686;28;20026;-75
2023/04/27 05:31:14;;;;;;;8.15;3.55;;;;;;;5.83;100.00;98873.47;5000562;28;20037;-75
2023/04/27 05:33:39;;;;;;;4.55;2.97;;;;;;;6.22;100.00;98899.59;5005351;28;20030;-75
2023/04/27 05:36:04;;;;;;;12.50;3.13;;;;;;;6.57;100.00;98914.38;5014024;28;20029;-75
2023/04/27 05:38:32;;;;;;;6.95;3.40;;;;;;;6.68;100.00;98910.50;5013839;28;20025;-75
2023/04/27 05:40:57;;;;;;;8.40;3.50;;;;;;;6.80;100.00;98925.22;5002811;28;20026;-75
2023/04/27 05:43:23;;;;;;;9.52;3.10;;;;;;;7.02;100.00;98911.97;4992149;28;20025;-76
2023/04/27 05:45:49;;;;;;;8.80;3.20;;;;;;;7.10;100.00;98909.25;5014334;28;20553;-77
2023/04/27 05:48:15;;;;;;;5.82;2.63;;;;;;;7.10;100.00;98898.50;4988663;28;20045;-76
2023/04/27 05:50:40;;;;;;;7.25;3.33;;;;;;;7.11;100.00;98918.97;5010362;28;20041;-78
2023/04/27 05:53:05;;;;;;;5.43;3.40;;;;;;;7.25;100.00;98920.88;4998122;28;20049;-80
2023/04/27 05:55:32;;;;;;;6.30;2.92;;;;;;;7.50;100.00;98936.88;5009627;28;20018;-85
2023/04/27 05:57:58;;;;;;;7.22;3.10;;;;;;;7.65;100.00;98932.38;5013819;28;20026;-82
2023/04/27 06:00:23;;;;;;;11.45;3.83;;;;;;;7.83;100.00;98942.81;5012296;28;20048;-77
2023/04/27 06:02:49;;;;;;;7.80;2.85;;;;;;;7.61;100.00;98914.06;5008068;28;20045;-75
2023/04/27 06:05:14;;;;;;;6.10;3.00;;;;;;;7.80;100.00;98931.56;5013862;28;20029;-78
2023/04/27 06:07:42;;;;;;;7.80;3.05;;;;;;;7.92;100.00;98926.59;4994955;28;20036;-73
2023/04/27 06:10:11;;;;;;;3.72;2.80;;;;;;;8.35;100.00;98939.25;5008034;28;20029;-73
2023/04/27 06:12:37;;;;;;;3.63;2.92;;;;;;;8.58;100.00;98921.34;4992390;28;20040;-76
2023/04/27 06:15:07;;;;;;;6.53;2.80;;;;;;;8.80;100.00;98947.34;5013445;28;20030;-73
2023/04/27 06:17:36;;;;;;;10.07;3.38;;;;;;;8.84;100.00;98923.53;5007722;28;20137;-74
2023/04/27 06:20:05;;;;;;;6.15;3.08;;;;;;;9.10;100.00;98950.00;4999596;28;20500;-73
2023/04/27 06:22:31;;;;;;;4.70;2.83;;;;;;;9.14;100.00;98925.13;5008232;28;20037;-77
2023/04/27 06:24:56;;;;;;;5.35;2.97;;;;;;;9.18;100.00;98922.88;5014718;28;20034;-76
2023/04/27 06:27:21;;;;;;;4.88;2.88;;;;;;;9.44;100.00;98931.25;4995472;28;20029;-74
2023/04/27 06:29:47;;;;;;;8.70;2.70;;;;;;;9.75;100.00;98921.97;4992356;28;20083;-75
2023/04/27 06:32:12;;;;;;;6.55;2.75;;;;;;;10.12;100.00;98933.47;4988065;28;20026;-75
2023/04/27 06:34:37;;;;;;;4.22;2.40;;;;;;;10.24;100.00;98918.38;4990173;28;20034;-75
2023/04/27 06:37:02;;;;;;;6.38;3.20;;;;;;;9.65;100.00;98943.91;5015371;28;20101;-74
2023/04/27 06:39:28;;;;;;;9.15;3.42;;;;;;;10.11;100.00;98926.38;4997926;28;20030;-77
2023/04/27 06:41:53;;;;;;;6.65;2.72;;;;;;;10.71;100.00;98922.19;4999296;28;20044;-81
2023/04/27 06:44:19;;;;;;;6.32;2.47;;;;;;;11.27;100.00;98931.16;5001741;28;20018;-76
2023/04/27 06:46:44;;;;;;;7.15;2.78;;;;;;;11.67;100.00;98917.66;4997559;28;20108;-75
2023/04/27 06:49:09;;;;;;;5.20;2.80;;;;;;;11.91;100.00;98927.06;4992480;28;20036;-72
2023/04/27 06:51:36;;;;;;;6.50;3.40;;;;;;;12.19;100.00;98940.41;5008537;28;20125;-71
2023/04/27 06:54:02;;;;;;;6.00;2.97;;;;;;;11.98;100.00;98944.19;5014040;28;20057;-71
2023/04/27 06:56:27;;;;;;;7.68;2.90;;;;;;;12.47;100.00;98949.13;5010104;28;20053;-79
2023/04/27 06:58:53;;;;;;;9.23;2.88;;;;;;;12.53;100.00;98949.31;4995176;28;20476;-73
2023/04/27 07:01:18;;;;;;;5.82;2.72;;;;;;;12.69;100.00;98938.81;4995825;28;20036;-75
2023/04/27 07:03:43;;;;;;;5.90;2.88;;;;;;;13.11;100.00;98933.84;4995776;28;20025;-73
2023/04/27 07:06:09;;;;;;;5.35;2.65;;;;;;;13.28;100.00;98936.94;4993946;28;20121;-74
2023/04/27 07:08:35;;;;;;;7.82;3.00;;;;;;;13.32;100.00;98926.47;5011794;28;20022;-73
2023/04/27 07:11:01;;;;;;;4.93;2.50;;;;;;;13.50;100.00;98928.44;5006597;28;20423;-72
2023/04/27 07:13:26;;;;;;;8.55;2.60;;;;;;;13.52;100.00;98943.50;5009864;28;20033;-77
2023/04/27 07:15:59;;;;;;;5.93;2.30;;;;;;;14.07;100.00;98963.78;4986489;28;20046;-76
2023/04/27 07:18:26;;;;;;;4.35;2.72;;;;;;;14.10;100.00;98934.25;4992483;28;20113;-77
2023/04/27 07:20:52;;;;;;;5.72;2.97;;;;;;;14.32;100.00;98942.00;4990967;28;20510;-77
2023/04/27 07:23:17;;;;;;;6.50;2.75;;;;;;;14.55;100.00;98960.44;5006296;28;20038;-71
2023/04/27 07:25:44;;;;;;;6.15;2.60;;;;;;;15.19;100.00;98967.22;5004893;28;20079;-72
2023/04/27 07:28:09;;;;;;;34.78;9.43;;;;;;;15.54;100.00;98947.50;5009572;28;20070;-73
2023/04/27 07:30:35;;;;;;;8.93;3.40;;;;;;;15.82;100.00;98957.78;4992265;28;20042;-73
2023/04/27 07:33:01;;;;;;;7.47;3.15;;;;;;;16.25;94.68;98964.88;5007490;28;20065;-73
2023/04/27 07:35:26;;;;;;;10.10;3.67;;;;;;;16.44;90.39;98941.81;4993648;28;20053;-73
2023/04/27 07:37:52;;;;;;;16.35;5.47;;;;;;;16.49;86.13;98946.56;4993871;28;20022;-72
2023/04/27 07:40:17;;;;;;;8.45;3.30;;;;;;;16.72;76.67;98944.91;5009342;28;20026;-71
2023/04/27 07:42:45;;;;;;;20.38;6.00;;;;;;;16.39;79.63;98944.44;4989884;28;20038;-71
2023/04/27 07:45:10;;;;;;;9.57;2.92;;;;;;;16.73;77.75;98936.44;5009292;28;20471;-71
2023/04/27 07:47:36;;;;;;;8.07;3.13;;;;;;;18.01;65.94;98910.75;5008783;28;20064;-72
2023/04/27 07:50:05;;;;;;;7.55;2.75;;;;;;;18.12;61.18;98924.34;5009127;28;20080;-71
2023/04/27 07:52:30;;;;;;;7.10;2.83;;;;;;;18.06;62.53;98917.13;5007601;28;20033;-75
2023/04/27 07:54:56;;;;;;;11.85;3.30;;;;;;;19.24;58.47;98922.34;4997877;28;20060;-76
2023/04/27 07:57:21;;;;;;;9.07;3.45;;;;;;;17.91;59.46;98933.31;4993231;28;20017;-75
2023/04/27 07:59:46;;;;;;;6.28;2.75;;;;;;;18.94;56.19;98942.00;5007806;28;20164;-75
2023/04/27 08:02:12;;;;;;;8.32;2.55;;;;;;;19.52;55.28;98925.09;5010532;28;20029;-76
2023/04/27 08:04:37;;;;;;;9.13;3.10;;;;;;;20.42;52.88;98920.66;5010385;28;20034;-75
2023/04/27 08:07:02;;;;;;;5.20;2.20;;;;;;;20.62;47.53;98928.25;5011541;28;20030;-74
2023/04/27 08:09:28;;;;;;;3.45;2.03;;;;;;;21.42;47.13;98922.56;4998803;28;20630;-74
2023/04/27 08:11:53;;;;;;;6.28;2.28;;;;;;;21.77;44.87;98926.47;5008883;28;20030;-74
2023/04/27 08:14:18;;;;;;;5.55;2.42;;;;;;;22.10;45.34;98930.63;4993061;28;20028;-74
2023/04/27 08:16:43;;;;;;;7.60;2.72;;;;;;;24.26;41.16;98898.19;5012307;28;20026;-75
2023/04/27 08:19:10;;;;;;;7.00;3.08;;;;;;;26.29;39.01;98928.28;5007047;28;20047;-74
2023/04/27 08:21:36;;;;;;;5.57;2.72;;;;;;;25.47;39.63;98921.22;5007758;28;20146;-75
2023/04/27 08:24:03;;;;;;;7.43;3.15;;;;;;;27.85;36.79;98904.28;4994213;28;20273;-78
2023/04/27 08:26:28;;;;;;;6.47;2.38;;;;;;;29.38;33.57;98911.31;5007089;28;20045;-75
2023/04/27 08:28:55;;;;;;;8.23;2.65;;;;;;;29.28;33.73;98892.13;5010741;28;20026;-78
2023/04/27 08:31:20;;;;;;;7.72;2.67;;;;;;;28.36;33.50;98914.16;4985556;22;1130345;-78
2023/04/27 08:33:46;;;;;;;6.28;2.55;;;;;;;27.62;34.38;98907.03;5013070;28;20018;-76
2023/04/27 08:36:11;;;;;;;7.63;2.35;;;;;;;27.66;34.31;98901.66;5011630;28;20014;-75
2023/04/27 08:38:37;;;;;;;6.10;2.45;;;;;;;28.03;33.81;98908.84;5010885;28;20044;-77
2023/04/27 08:41:03;;;;;;;4.13;2.40;;;;;;;28.58;33.57;98891.88;4996698;28;20491;-77
2023/04/27 08:43:35;;;;;;;4.50;2.13;;;;;;;27.55;33.49;98909.41;5001177;28;20113;-78
2023/04/27 08:46:01;;;;;;;11.32;2.83;;;;;;;27.78;32.39;98899.16;4991467;28;21516;-77
2023/04/27 08:48:27;;;;;;;8.60;2.38;;;;;;;27.94;32.30;98899.63;4999719;28;20076;-76
2023/04/27 08:50:55;;;;;;;6.80;3.05;;;;;;;27.29;32.64;98881.38;5014848;28;20030;-76
2023/04/27 08:53:22;;;;;;;4.70;2.40;;;;;;;25.75;33.72;98900.84;5009012;28;20080;-76
2023/04/27 08:55:50;;;;;;;4.97;2.38;;;;;;;29.24;31.49;98888.34;5003498;28;20045;-77
2023/04/27 08:58:15;;;;;;;9.50;3.13;;;;;;;29.90;30.26;98883.47;5016728;28;20501;-79
2023/04/27 09:00:42;;;;;;;3.90;2.08;;;;;;;31.95;28.51;98892.75;5013052;28;20109;-76
2023/04/27 09:03:26;;;;;;;6.40;2.20;;;;;;;32.48;27.52;98895.84;5001258;28;20091;-80
2023/04/27 09:05:51;;;;;;;4.18;2.25;;;;;;;31.28;27.77;98894.53;5019917;28;20021;-75
2023/04/27 09:08:17;;;;;;;5.72;1.98;;;;;;;30.22;29.25;98888.84;5018095;28;20029;-81
2023/04/27 09:10:47;;;;;;;5.00;2.05;;;;;;;29.57;28.81;98891.50;5014882;28;20336;-78
2023/04/27 09:13:13;;;;;;;12.90;2.67;;;;;;;28.40;30.38;98877.03;5015578;28;20033;-75
2023/04/27 09:15:49;;;;;;;4.45;2.00;;;;;;;28.55;30.92;98895.28;5011809;28;20030;-78
2023/04/27 09:18:22;;;;;;;4.88;2.20;;;;;;;28.53;29.94;98886.44;5004808;28;20060;-77
2023/04/27 09:20:49;;;;;;;5.80;2.35;;;;;;;27.60;30.49;98887.06;5017582;28;20052;-83
2023/04/27 09:23:26;;;;;;;6.97;2.30;;;;;;;29.94;29.39;98889.22;5002734;28;20050;-77
2023/04/27 09:25:53;;;;;;;4.68;2.05;;;;;;;29.62;28.78;98888.53;5027886;28;20141;-81
2023/04/27 09:28:18;;;;;;;5.28;1.75;;;;;;;29.50;29.04;98882.78;4990121;28;20022;-77
2023/04/27 09:30:51;;;;;;;6.72;2.05;;;;;;;30.49;29.91;98893.25;5018565;28;20033;-78
2023/04/27 09:33:25;;;;;;;5.97;3.22;;;;;;;29.99;31.05;98889.03;5018919;28;20121;-78
2023/04/27 09:35:51;;;;;;;4.70;2.13;;;;;;;30.14;28.43;98887.72;5010685;28;20101;-77
2023/04/27 09:38:21;;;;;;;6.53;1.67;;;;;;;29.37;28.87;98897.69;4992223;28;20434;-78
2023/04/27 09:40:48;;;;;;;3.92;1.90;;;;;;;29.07;29.23;98896.66;5014235;28;20053;-77
2023/04/27 09:43:14;;;;;;;5.35;2.00;;;;;;;29.52;29.04;98904.78;5012807;28;20498;-76
2023/04/27 09:45:39;;;;;;;5.10;2.50;;;;;;;28.44;29.76;98899.47;5012301;28;20034;-77
2023/04/27 09:48:06;;;;;;;4.95;2.00;;;;;;;31.69;27.79;98889.34;5011520;28;20045;-77
2023/04/27 09:50:36;;;;;;;8.50;2.20;;;;;;;31.80;26.61;98899.75;5013139;28;20022;-80
2023/04/27 09:53:04;;;;;;;6.75;2.22;;;;;;;30.56;27.87;98871.22;5014373;28;20475;-76
2023/04/27 09:55:38;;;;;;;5.18;2.42;;;;;;;30.55;27.88;98870.41;5008310;28;20144;-78
2023/04/27 09:58:41;;;;;;;10.25;2.53;;;;;;;31.62;27.16;98882.31;4998748;28;20026;-80
2023/04/27 10:01:30;;;;;;;4.80;1.55;;;;;;;31.52;25.70;98871.53;5012457;28;20072;-78
2023/04/27 10:04:11;;;;;;;3.22;1.70;;;;;;;32.09;25.37;98876.50;5005634;28;20026;-77
2023/04/27 10:06:58;;;;;;;6.97;2.17;;;;;;;29.74;26.62;98873.97;5012892;28;20029;-76
2023/04/27 10:09:24;;;;;;;4.90;1.95;;;;;;;28.48;27.22;98883.81;5006804;28;20391;-77
2023/04/27 10:11:51;;;;;;;8.38;1.95;;;;;;;30.22;27.36;98878.50;4996284;28;20034;-76
2023/04/27 10:14:18;;;;;;;5.18;2.55;;;;;;;30.76;27.13;98876.06;4996670;28;20029;-77
2023/04/27 10:16:57;;;;;;;4.88;2.55;;;;;;;30.95;26.59;98884.03;5013671;28;20040;-77
2023/04/27 10:19:23;;;;;;;;;;;;;;;30.64;27.22;98878.72;5008395;28;20014;-76
2023/04/27 10:21:52;;;;;;;6.65;2.53;;;;;;;30.28;27.09;98882.78;5013253;28;20008;-77
2023/04/27 10:24:17;;;;;;;6.43;2.78;;;;;;;31.59;25.67;98873.78;4998834;28;20039;-77
2023/04/27 10:26:47;;;;;;;4.13;2.50;;;;;;;30.80;26.65;98874.22;5012649;28;20510;-77
2023/04/27 10:29:15;;;;;;;7.22;2.67;;;;;;;31.38;26.79;98870.97;4994367;28;20048;-77
2023/04/27 10:31:46;;;;;;;5.65;2.35;;;;;;;30.86;26.80;98879.63;5022540;28;20030;-78
2023/04/27 10:34:16;;;;;;;3.17;1.60;;;;;;;30.71;24.39;98870.66;5016351;28;20808;-79
2023/04/27 10:36:42;;;;;;;5.50;1.80;;;;;;;27.92;26.00;98888.81;5006470;28;20033;-79
2023/04/27 10:39:15;;;;;;;3.50;2.00;;;;;;;28.22;27.20;98888.34;5000953;28;20022;-81
2023/04/27 10:41:49;;;;;;;4.22;1.92;;;;;;;29.43;27.09;98865.75;5001639;28;20025;-83
2023/04/27 10:44:16;;;;;;;5.57;1.77;;;;;;;28.53;27.27;98874.47;5017425;28;20107;-80
2023/04/27 10:46:52;;;;;;;4.28;1.98;;;;;;;28.08;27.82;98892.03;5009534;28;20030;-78
2023/04/27 10:49:18;;;;;;;4.00;2.03;;;;;;;29.56;26.66;98861.97;5017031;28;20026;-82
2023/04/27 10:51:43;;;;;;;4.50;1.90;;;;;;;30.53;25.80;98864.31;5018145;28;20044;-79
2023/04/27 10:54:10;;;;;;;5.32;2.15;;;;;;;29.52;26.17;98858.19;5009656;28;20459;-81
2023/04/27 10:56:35;;;;;;;5.13;1.85;;;;;;;29.08;28.41;98862.88;5008672;28;20041;-79
2023/04/27 10:59:03;;;;;;;6.07;2.25;;;;;;;32.13;26.31;98868.22;5012126;28;20018;-75
2023/04/27 11:01:28;;;;;;;3.45;1.83;;;;;;;32.92;25.68;98857.72;5006472;28;20021;-75
2023/04/27 11:03:56;;;;;;;4.28;1.65;;;;;;;36.05;23.52;98856.31;5006107;28;20033;-77
2023/04/27 11:06:21;;;;;;;4.10;1.92;;;;;;;33.77;23.81;98861.59;4996267;28;20029;-77
2023/04/27 11:08:46;;;;;;;4.85;1.77;;;;;;;32.48;24.63;98860.25;5007346;28;20038;-78
2023/04/27 11:11:16;;;;;;;5.20;1.80;;;;;;;31.48;25.56;98851.00;4995298;28;20037;-75
2023/04/27 11:13:42;;;;;;;4.82;1.80;;;;;;;32.72;24.17;98856.69;5018097;28;20060;-81
2023/04/27 11:16:08;;;;;;;3.47;1.77;;;;;;;31.13;25.49;98842.84;5006612;28;20026;-79
2023/04/27 11:18:36;;;;;;;4.03;2.33;;;;;;;30.65;24.54;98852.44;5000040;28;20125;-76
2023/04/27 11:21:28;;;;;;;8.63;2.47;;;;;;;29.44;25.42;98856.22;4992920;28;20026;-81
2023/04/27 11:23:53;;;;;;;6.10;1.92;;;;;;;27.87;26.86;98860.31;4999316;28;20041;-74
2023/04/27 11:26:20;;;;;;;7.00;2.40;;;;;;;30.23;25.73;98852.25;5001362;28;20034;-73
2023/04/27 11:29:01;;;;;;;5.57;2.00;;;;;;;29.36;25.66;98855.06;4992922;28;20030;-74
2023/04/27 11:31:37;;;;;;;3.63;1.88;;;;;;;28.88;26.06;98842.03;5000288;28;20026;-74
2023/04/27 11:34:02;;;;;;;4.32;1.80;;;;;;;29.48;26.00;98837.72;5012598;28;20550;-73